CheckWX is a tool to help pilots better visualize weather data.  It is not intended as a substitute for an official pre-flight weather briefing.

06:33:31 UTC

VDSR METAR
Siem Reap International Airport
Siem Reap, Cambodia
Current

34 mins ago

VDSR 310600Z 19004KT 9999 FEW015 36/21 Q1007
Observed
Mar-31 @ 06:00 UTC
Wind
  • 190° at 4 KTS
Visibility
10,000+ meters
Flight Rules
VFR
Cloud Levels
  • Few at 1,500' AGL
Temperature
36°C / 97°F
Dewpoint
21°C / 70°F
Humidity
42%
Altimeter
29.73" Hg
Pressure
1006.92 hPa
Previous

1 hour ago

VDSR 310530Z 17005KT 9999 FEW015 36/21 Q1008
Observed
Mar-31 @ 05:30 UTC
Wind
  • 170° at 5 KTS
Visibility
10,000+ meters
Flight Rules
VFR
Cloud Levels
  • Few at 1,500' AGL
Temperature
36°C / 97°F
Dewpoint
21°C / 70°F
Humidity
42%
Altimeter
29.76" Hg
Pressure
1007.92 hPa
Previous

2 hours ago

VDSR 310500Z 15005KT 9999 FEW015 35/21 Q1009
Observed
Mar-31 @ 05:00 UTC
Wind
  • 150° at 5 KTS
Visibility
10,000+ meters
Flight Rules
VFR
Cloud Levels
  • Few at 1,500' AGL
Temperature
35°C / 95°F
Dewpoint
21°C / 70°F
Humidity
44%
Altimeter
29.79" Hg
Pressure
1008.92 hPa